createdAt,value
2022-10-11T00:00:34.905Z,98.39
2022-10-11T00:02:36.477Z,98.42
2022-10-11T00:04:37.993Z,98.43
2022-10-11T00:06:39.311Z,98.44
2022-10-11T00:08:41.035Z,98.44
2022-10-11T00:10:42.699Z,98.45
2022-10-11T00:12:43.618Z,98.46
2022-10-11T00:14:44.843Z,98.46
2022-10-11T00:16:46.309Z,98.44
2022-10-11T00:17:30.089Z,98.42
2022-10-11T00:19:31.308Z,98.42
2022-10-11T00:21:32.558Z,98.41
2022-10-11T00:25:35.249Z,98.39
2022-10-11T00:27:36.451Z,98.4
2022-10-11T00:29:37.448Z,98.4
2022-10-11T00:31:38.354Z,98.39
2022-10-11T00:33:40.070Z,98.39
2022-10-11T00:35:41.110Z,98.38
2022-10-11T00:37:42.139Z,98.39
2022-10-11T00:39:43.846Z,98.37
2022-10-11T00:41:45.427Z,98.38
2022-10-11T00:43:46.590Z,98.38
2022-10-11T00:45:47.965Z,98.35
2022-10-11T00:47:49.668Z,98.37
2022-10-11T00:49:50.947Z,98.36
2022-10-11T00:51:52.746Z,98.35
2022-10-11T00:53:54.170Z,98.35
2022-10-11T00:55:55.322Z,98.35
2022-10-11T00:57:56.545Z,98.36
2022-10-11T00:59:57.537Z,98.34
2022-10-11T01:01:59.165Z,98.33
2022-10-11T01:04:00.475Z,98.29
2022-10-11T01:06:02.555Z,98.32
2022-10-11T01:08:03.520Z,98.32
2022-10-11T01:10:04.686Z,98.34
2022-10-11T01:14:07.402Z,98.35
2022-10-11T01:16:09.067Z,98.36
2022-10-11T01:18:10.430Z,98.36
2022-10-11T01:20:11.619Z,98.35
2022-10-11T01:22:12.905Z,98.33
2022-10-11T01:24:13.870Z,98.31
2022-10-11T01:26:14.874Z,98.31
2022-10-11T01:28:16.328Z,98.31
2022-10-11T01:30:18.030Z,98.34
2022-10-11T01:32:19.839Z,98.37
2022-10-11T01:36:21.783Z,98.36
2022-10-11T01:38:23.579Z,98.36
2022-10-11T01:40:25.361Z,98.37
2022-10-11T01:42:26.555Z,98.39
2022-10-11T01:44:27.870Z,98.37
2022-10-11T01:46:28.910Z,98.39
2022-10-11T01:48:30.499Z,98.44
2022-10-11T01:50:31.677Z,98.43
2022-10-11T01:52:33.461Z,98.43
2022-10-11T01:54:50.127Z,98.42
2022-10-11T01:56:36.557Z,98.42
2022-10-11T01:58:38.320Z,98.45
2022-10-11T02:00:39.611Z,98.45
2022-10-11T02:02:40.949Z,98.44
2022-10-11T02:06:43.820Z,98.5
2022-10-11T02:08:44.873Z,98.48
2022-10-11T02:10:46.340Z,98.49
2022-10-11T02:12:47.520Z,98.47
2022-10-11T02:14:49.397Z,98.48
2022-10-11T02:16:50.563Z,98.48
2022-10-11T02:18:52.166Z,98.46
2022-10-11T02:20:53.400Z,98.46
2022-10-11T02:22:55.117Z,98.45
2022-10-11T02:24:56.688Z,98.46
2022-10-11T02:26:57.723Z,98.48
2022-10-11T02:28:59.567Z,98.46
2022-10-11T02:31:01.045Z,98.46
2022-10-11T02:33:02.048Z,98.45
2022-10-11T02:35:03.684Z,98.48
2022-10-11T02:37:05.214Z,98.5
2022-10-11T02:39:06.199Z,98.48
2022-10-11T02:41:07.150Z,98.46
2022-10-11T02:43:08.880Z,98.49
2022-10-11T02:45:09.916Z,98.51
2022-10-11T02:49:13.221Z,98.52
2022-10-11T02:51:14.832Z,98.53
2022-10-11T02:53:15.830Z,98.55
2022-10-11T02:55:16.939Z,98.56
2022-10-11T02:57:18.461Z,98.61
2022-10-11T02:59:19.707Z,98.63
2022-10-11T03:01:21.115Z,98.62
2022-10-11T03:03:22.328Z,98.62
2022-10-11T03:05:23.364Z,98.62
2022-10-11T03:07:24.935Z,98.6
2022-10-11T03:09:26.701Z,98.64
2022-10-11T03:11:28.280Z,98.6
2022-10-11T03:13:29.331Z,98.59
2022-10-11T03:15:30.807Z,98.59
2022-10-11T03:17:36.424Z,98.64
2022-10-11T03:21:35.230Z,98.66
2022-10-11T03:23:36.766Z,98.62
2022-10-11T03:25:37.883Z,98.57
2022-10-11T03:27:38.932Z,98.55
2022-10-11T03:31:41.119Z,98.33
2022-10-11T03:33:42.941Z,98.25
2022-10-11T03:37:46.405Z,98.08
2022-10-11T03:39:47.514Z,97.98
2022-10-11T03:41:48.642Z,97.83
2022-10-11T03:43:49.873Z,97.68
2022-10-11T03:47:52.569Z,97.43
2022-10-11T03:49:53.597Z,97.25
2022-10-11T03:51:55.450Z,97.1
2022-10-11T03:53:56.803Z,97.07
2022-10-11T03:55:58.709Z,97.07
2022-10-11T03:58:00.026Z,97.06
2022-10-11T04:00:00.956Z,97.01
2022-10-11T04:02:02.902Z,97.07
2022-10-11T04:04:04.598Z,97.07
2022-10-11T04:06:06.266Z,97.01
2022-10-11T04:08:11.167Z,96.97
2022-10-11T04:10:09.290Z,97
2022-10-11T04:12:10.599Z,97.05
2022-10-11T04:14:12.334Z,97.05
2022-10-11T04:16:13.946Z,97
2022-10-11T04:20:16.741Z,97.09
2022-10-11T04:22:17.657Z,96.97
2022-10-11T04:24:18.941Z,96.88
2022-10-11T04:26:20.663Z,96.86
2022-10-11T04:30:23.222Z,96.64
2022-10-11T04:32:24.108Z,96.63
2022-10-11T04:34:25.628Z,96.57
2022-10-11T04:36:27.054Z,96.4
2022-10-11T04:38:27.981Z,96.26
2022-10-11T04:40:29.584Z,96.22
2022-10-11T04:42:30.856Z,96.08
2022-10-11T04:44:32.217Z,96
2022-10-11T04:46:33.515Z,96.02
2022-10-11T04:48:34.465Z,96.02
2022-10-11T04:50:36.215Z,96.07
2022-10-11T04:52:37.322Z,96.17
2022-10-11T04:54:38.426Z,96.24
2022-10-11T04:56:39.713Z,96.33
2022-10-11T04:58:40.626Z,96.46
2022-10-11T05:02:43.466Z,96.52
2022-10-11T05:04:45.064Z,96.76
2022-10-11T05:06:46.303Z,96.76
2022-10-11T05:08:48.149Z,96.76
2022-10-11T05:12:51.369Z,96.68
2022-10-11T05:14:52.829Z,96.63
2022-10-11T05:16:54.510Z,96.58
2022-10-11T05:18:55.788Z,96.57
2022-10-11T05:20:57.310Z,96.58
2022-10-11T05:22:58.771Z,96.59
2022-10-11T05:25:00.645Z,96.67
2022-10-11T05:27:03.470Z,96.69
2022-10-11T05:29:03.703Z,96.73
2022-10-11T05:31:05.503Z,96.67
2022-10-11T05:33:07.052Z,96.74
2022-10-11T05:35:08.974Z,96.77
2022-10-11T05:37:10.187Z,96.79
2022-10-11T05:39:11.255Z,96.78
2022-10-11T05:41:12.500Z,96.78
2022-10-11T05:45:15.280Z,96.88
2022-10-11T05:47:16.313Z,96.87
2022-10-11T05:49:17.532Z,96.98
2022-10-11T05:51:18.898Z,96.97
2022-10-11T05:55:21.457Z,97.02
2022-10-11T05:57:23.327Z,97.06
2022-10-11T06:01:25.645Z,96.99
2022-10-11T06:03:27.231Z,96.97
2022-10-11T06:05:28.834Z,96.95
2022-10-11T06:07:30.736Z,96.95
2022-10-11T06:09:32.143Z,96.91
2022-10-11T06:11:34.048Z,96.94
2022-10-11T06:13:35.547Z,96.95
2022-10-11T06:15:37.250Z,96.93
2022-10-11T06:17:38.216Z,96.96
2022-10-11T06:19:39.527Z,97
2022-10-11T06:21:40.730Z,96.93
2022-10-11T06:23:41.819Z,96.97
2022-10-11T06:25:43.552Z,96.93
2022-10-11T06:27:44.978Z,96.9
2022-10-11T06:29:46.806Z,96.88
2022-10-11T06:31:48.610Z,96.86
2022-10-11T06:33:50.149Z,96.85
2022-10-11T06:35:51.740Z,96.78
2022-10-11T06:37:53.389Z,96.71
2022-10-11T06:39:55.177Z,96.63
2022-10-11T06:43:57.881Z,96.49
2022-10-11T06:45:59.649Z,96.43
2022-10-11T06:48:01.058Z,96.46
2022-10-11T06:50:02.199Z,96.37
2022-10-11T06:54:05.202Z,96.35
2022-10-11T06:56:07.025Z,96.42
2022-10-11T06:58:08.509Z,96.27
2022-10-11T07:00:12.588Z,96.27
2022-10-11T07:02:11.608Z,95.92
2022-10-11T07:03:21.542Z,95.83
2022-10-11T07:05:22.832Z,95.7
2022-10-11T07:07:24.403Z,95.52
2022-10-11T07:09:26.072Z,95.81
2022-10-11T07:11:27.360Z,95.3
2022-10-11T07:13:28.795Z,94.07
2022-10-11T07:15:29.789Z,94.1
2022-10-11T07:17:31.646Z,93.69
2022-10-11T07:19:33.384Z,93.18
2022-10-11T07:21:35.239Z,93.17
2022-10-11T07:23:36.927Z,93.69
2022-10-11T07:25:37.972Z,93.37
2022-10-11T07:27:38.877Z,93.35
2022-10-11T07:29:40.185Z,92.98
2022-10-11T07:31:41.797Z,93.07
2022-10-11T07:33:43.612Z,93.49
2022-10-11T07:35:47.439Z,93.33
2022-10-11T07:37:45.957Z,93.48
2022-10-11T07:41:48.593Z,92.85
2022-10-11T07:43:50.391Z,93.27
2022-10-11T07:45:52.181Z,92.38
2022-10-11T07:47:54.033Z,92.93
2022-10-11T07:49:55.251Z,92.66
2022-10-11T07:51:56.247Z,92.54
2022-10-11T07:53:57.578Z,92.74
2022-10-11T07:55:59.276Z,92.76
2022-10-11T07:58:00.879Z,92.44
2022-10-11T08:00:02.131Z,91.89
2022-10-11T08:02:03.483Z,90.7
2022-10-11T08:04:04.579Z,91.71
2022-10-11T08:06:06.141Z,91.45
2022-10-11T08:08:07.209Z,89.81
2022-10-11T08:10:08.366Z,89.73
2022-10-11T08:12:10.188Z,89.84
2022-10-11T08:14:11.927Z,90.5
2022-10-11T08:16:12.881Z,90.69
2022-10-11T08:18:14.560Z,90.39
2022-10-11T08:20:15.572Z,89.18
2022-10-11T08:22:16.619Z,89.77
2022-10-11T08:24:18.424Z,90.14
2022-10-11T08:26:19.950Z,90.47
2022-10-11T08:28:21.520Z,90.81
2022-10-11T08:30:22.706Z,91.45
2022-10-11T08:32:24.383Z,91.35
2022-10-11T08:34:26.009Z,90.85
2022-10-11T08:36:27.349Z,89.74
2022-10-11T08:38:28.639Z,89.36
2022-10-11T08:40:34.359Z,90.52
2022-10-11T08:42:30.484Z,88.82
2022-10-11T08:44:41.539Z,90.11
2022-10-11T08:48:34.138Z,89.37
2022-10-11T08:50:35.575Z,88.77
2022-10-11T08:52:36.481Z,89.92
2022-10-11T08:54:37.805Z,87.84
2022-10-11T08:56:38.996Z,87.57
2022-10-11T08:58:40.652Z,88.45
2022-10-11T09:00:42.449Z,87.31
2022-10-11T09:03:06.726Z,87.49
2022-10-11T09:04:45.390Z,87.63
2022-10-11T09:06:47.088Z,86.87
2022-10-11T09:08:48.898Z,87.49
2022-10-11T09:10:50.372Z,87.4
2022-10-11T09:12:51.743Z,88.43
2022-10-11T09:14:53.181Z,87.23
2022-10-11T09:16:54.902Z,87.38
2022-10-11T09:18:56.212Z,86.82
2022-10-11T09:20:57.056Z,86.6
2022-10-11T09:22:58.440Z,85.16
2022-10-11T09:24:59.863Z,87.93
2022-10-11T09:27:00.898Z,84.33
2022-10-11T09:29:02.078Z,84.37
2022-10-11T09:31:03.316Z,85.68
2022-10-11T09:33:04.815Z,85.77
2022-10-11T09:35:05.849Z,84.79
2022-10-11T09:37:07.687Z,84.83
2022-10-11T09:39:08.620Z,85.42
2022-10-11T09:41:09.531Z,86.24
2022-10-11T09:43:11.056Z,85.81
2022-10-11T09:45:11.974Z,86.34
2022-10-11T09:47:13.011Z,86.87
2022-10-11T09:49:14.439Z,86.29
2022-10-11T09:51:15.610Z,87.15
2022-10-11T09:53:16.986Z,85.79
2022-10-11T09:55:19.743Z,86.89
2022-10-11T09:57:20.762Z,85.27
2022-10-11T09:59:22.304Z,85.89
2022-10-11T10:01:23.564Z,85.99
2022-10-11T10:03:24.891Z,86.15
2022-10-11T10:05:25.814Z,85.66
2022-10-11T10:07:27.115Z,84.51
2022-10-11T10:09:28.792Z,85.07
2022-10-11T10:11:30.110Z,86.67
2022-10-11T10:13:31.716Z,85.76
2022-10-11T10:15:32.558Z,85.83
2022-10-11T10:17:33.601Z,84.95
2022-10-11T10:19:34.520Z,85.74
2022-10-11T10:21:35.603Z,85.14
2022-10-11T10:23:37.353Z,86.41
2022-10-11T10:25:43.209Z,86.25
2022-10-11T10:27:39.582Z,85.75
2022-10-11T10:29:41.344Z,83.71
2022-10-11T10:32:09.089Z,84.67
2022-10-11T10:33:43.993Z,83.94
2022-10-11T10:35:44.859Z,84.16
2022-10-11T10:37:46.172Z,84.09
2022-10-11T10:39:47.766Z,82.72
2022-10-11T10:41:49.357Z,83.1
2022-10-11T10:43:50.480Z,84.98
2022-10-11T10:45:51.608Z,82.81
2022-10-11T10:47:52.948Z,81.48
2022-10-11T10:51:55.575Z,81.66
2022-10-11T10:53:56.703Z,83.74
2022-10-11T10:55:57.859Z,83.16
2022-10-11T10:58:00.223Z,83.72
2022-10-11T11:00:01.095Z,84.12
2022-10-11T11:02:15.842Z,84.36
2022-10-11T11:04:04.247Z,82.9
2022-10-11T11:06:05.836Z,84.09
2022-10-11T11:08:07.438Z,85.27
2022-10-11T11:12:10.439Z,83.31
2022-10-11T11:14:12.021Z,83.34
2022-10-11T11:16:13.281Z,83.72
2022-10-11T11:18:14.609Z,82.95
2022-10-11T11:20:16.242Z,84.08
2022-10-11T11:22:17.777Z,84.37
2022-10-11T11:26:19.772Z,81.73
2022-10-11T11:28:21.193Z,83.2
2022-10-11T11:30:23.456Z,82.82
2022-10-11T11:32:25.050Z,82.82
2022-10-11T11:36:28.149Z,83.36
2022-10-11T11:38:29.950Z,84.34
2022-10-11T11:40:31.274Z,84.83
2022-10-11T11:42:32.391Z,83.27
2022-10-11T11:44:33.881Z,82.84
2022-10-11T11:46:34.908Z,83.57
2022-10-11T11:48:35.980Z,81.7
2022-10-11T11:50:38.025Z,81.78
2022-10-11T11:52:39.778Z,83.43
2022-10-11T11:54:40.773Z,82.68
2022-10-11T11:56:41.926Z,81.2
2022-10-11T11:58:43.110Z,81.55
2022-10-11T12:00:44.238Z,82.81
2022-10-11T12:04:47.322Z,82.53
2022-10-11T12:07:11.358Z,79.89
2022-10-11T12:08:49.926Z,80.77
2022-10-11T12:10:51.026Z,80.67
2022-10-11T12:12:52.706Z,81.14
2022-10-11T12:14:53.567Z,81.6
2022-10-11T12:16:54.829Z,81.12
2022-10-11T12:18:56.382Z,81.14
2022-10-11T12:20:58.070Z,80.86
2022-10-11T12:22:59.778Z,80.65
2022-10-11T12:25:01.371Z,81.62
2022-10-11T12:27:02.673Z,80.82
2022-10-11T12:29:03.613Z,81.28
2022-10-11T12:31:04.763Z,81.46
2022-10-11T12:35:06.761Z,80.85
2022-10-11T12:37:07.721Z,81.78
2022-10-11T12:39:08.834Z,81.3
2022-10-11T12:41:09.795Z,80.57
2022-10-11T12:43:11.109Z,82.85
2022-10-11T12:45:12.008Z,81.72
2022-10-11T12:47:13.298Z,82.07
2022-10-11T12:49:14.727Z,79.61
2022-10-11T12:51:16.215Z,81.84
2022-10-11T12:53:17.163Z,78.93
2022-10-11T12:55:18.974Z,80.49
2022-10-11T12:57:20.256Z,80.82
2022-10-11T12:59:21.784Z,79.91
2022-10-11T13:01:23.420Z,79.68
2022-10-11T13:03:28.399Z,80.3
2022-10-11T13:05:26.324Z,80.21
2022-10-11T13:07:28.104Z,80.69
2022-10-11T13:09:29.447Z,79.48
2022-10-11T13:11:30.444Z,77.74
2022-10-11T13:13:32.228Z,80.63
2022-10-11T13:17:38.132Z,81.08
2022-10-11T13:19:35.801Z,80.95
2022-10-11T13:21:36.929Z,78.88
2022-10-11T13:23:38.384Z,79.62
2022-10-11T13:25:39.232Z,81.18
2022-10-11T13:27:40.587Z,78.63
2022-10-11T13:29:42.279Z,78.52
2022-10-11T13:31:43.611Z,75.29
2022-10-11T13:33:44.543Z,78.02
2022-10-11T13:35:46.022Z,78.66
2022-10-11T13:37:47.584Z,79.12
2022-10-11T13:39:48.660Z,79.98
2022-10-11T13:41:49.802Z,79.99
2022-10-11T13:43:50.916Z,80.24
2022-10-11T13:45:52.119Z,82.38
2022-10-11T13:48:37.565Z,79.54
2022-10-11T13:50:38.585Z,80.63
2022-10-11T13:52:39.724Z,79.47
2022-10-11T13:54:41.423Z,79.18
2022-10-11T13:56:42.741Z,79.69
2022-10-11T14:00:45.314Z,81.12
2022-10-11T14:02:46.562Z,80.02
2022-10-11T14:04:48.045Z,79.43
2022-10-11T14:06:49.495Z,79.82
2022-10-11T14:10:55.777Z,81.78
2022-10-11T14:12:54.081Z,81.92
2022-10-11T14:14:55.434Z,81.18
2022-10-11T14:16:56.745Z,81.75
2022-10-11T14:18:57.899Z,81.96
2022-10-11T14:20:59.723Z,81.42
2022-10-11T14:23:00.924Z,81.7
2022-10-11T14:25:01.969Z,82.16
2022-10-11T14:27:03.066Z,79.74
2022-10-11T14:29:04.705Z,82.26
2022-10-11T14:31:06.212Z,80.55
2022-10-11T14:33:07.303Z,82.49
2022-10-11T14:35:08.899Z,81.11
2022-10-11T14:37:10.622Z,81.59
2022-10-11T14:39:12.207Z,82.83
2022-10-11T14:41:13.804Z,82.86
2022-10-11T14:43:15.102Z,82.22
2022-10-11T14:45:16.734Z,82.8
2022-10-11T14:47:18.423Z,81.67
2022-10-11T14:49:19.331Z,81.58
2022-10-11T14:53:21.396Z,81.86
2022-10-11T14:55:22.548Z,83.08
2022-10-11T14:57:23.851Z,82.76
2022-10-11T14:59:25.566Z,82.85
2022-10-11T15:01:26.943Z,81.88
2022-10-11T15:03:28.711Z,82.27
2022-10-11T15:05:33.616Z,81.39
2022-10-11T15:07:31.126Z,81.3
2022-10-11T15:09:32.293Z,81
2022-10-11T15:11:33.619Z,80.77
2022-10-11T15:13:35.424Z,81.25
2022-10-11T15:15:36.821Z,80.13
2022-10-11T15:17:37.985Z,80.01
2022-10-11T15:19:39.140Z,80.6
2022-10-11T15:21:40.452Z,81.22
2022-10-11T15:23:42.140Z,81.29
2022-10-11T15:25:43.808Z,81.53
2022-10-11T15:27:45.439Z,81.03
2022-10-11T15:29:46.806Z,82.58
2022-10-11T15:31:47.790Z,82.14
2022-10-11T15:33:49.033Z,82.8
2022-10-11T15:35:50.033Z,82.26
2022-10-11T15:37:51.036Z,83.14
2022-10-11T15:39:52.031Z,82.35
2022-10-11T15:41:53.843Z,81.63
2022-10-11T15:43:55.632Z,81.55
2022-10-11T15:45:57.442Z,82.14
2022-10-11T15:47:58.664Z,82.04
2022-10-11T15:49:59.754Z,82.01
2022-10-11T15:52:01.533Z,82.71
2022-10-11T15:54:02.476Z,83.51
2022-10-11T15:56:03.895Z,84.38
2022-10-11T15:58:04.576Z,85.64
2022-10-11T16:00:06.189Z,86.22
2022-10-11T16:02:07.988Z,86.7
2022-10-11T16:04:09.045Z,87.33
2022-10-11T16:06:10.708Z,88.32
2022-10-11T16:08:11.768Z,89.12
2022-10-11T16:10:13.026Z,89.59
2022-10-11T16:12:14.456Z,89.59
2022-10-11T16:14:15.861Z,89.65
2022-10-11T16:16:17.530Z,89.76
2022-10-11T16:18:19.346Z,89.82
2022-10-11T16:20:20.756Z,89.39
2022-10-11T16:24:23.719Z,89
2022-10-11T16:26:25.492Z,89.38
2022-10-11T16:28:26.788Z,89.38
2022-10-11T16:30:28.473Z,89.9
2022-10-11T16:34:30.974Z,90.28
2022-10-11T16:36:32.290Z,90.77
2022-10-11T16:38:33.238Z,91.12
2022-10-11T16:40:35.948Z,91.54
2022-10-11T16:42:35.858Z,91.7
2022-10-11T16:44:36.898Z,92.16
2022-10-11T16:46:37.918Z,92.38
2022-10-11T16:48:38.976Z,92.8
2022-10-11T16:50:39.976Z,92.67
2022-10-11T16:52:41.449Z,92.37
2022-10-11T16:54:42.397Z,90.89
2022-10-11T16:56:44.153Z,90.11
2022-10-11T16:58:45.787Z,89.71
2022-10-11T17:00:47.721Z,89.69
2022-10-11T17:02:48.695Z,89.68
2022-10-11T17:04:49.818Z,89.84
2022-10-11T17:06:50.743Z,89.55
2022-10-11T17:08:52.084Z,89.36
2022-10-11T17:10:53.433Z,89.48
2022-10-11T17:12:54.404Z,89.45
2022-10-11T17:16:57.638Z,89.75
2022-10-11T17:18:59.390Z,89.77
2022-10-11T17:21:00.320Z,90.07
2022-10-11T17:23:01.763Z,90.37
2022-10-11T17:25:02.894Z,90.69
2022-10-11T17:27:04.570Z,90.76
2022-10-11T17:29:05.813Z,89.71
2022-10-11T17:31:07.845Z,89.91
2022-10-11T17:33:09.132Z,89.59
2022-10-11T17:35:10.621Z,89.61
2022-10-11T17:37:12.078Z,89.55
2022-10-11T17:39:13.820Z,89.82
2022-10-11T17:41:15.151Z,89.99
2022-10-11T17:43:16.081Z,90.1
2022-10-11T17:45:17.577Z,90.36
2022-10-11T17:49:19.654Z,90.59
2022-10-11T17:51:21.332Z,90.63
2022-10-11T17:53:22.663Z,90.07
2022-10-11T17:55:23.841Z,89.75
2022-10-11T17:59:26.753Z,89.42
2022-10-11T18:01:27.958Z,89.6
2022-10-11T18:03:29.355Z,89.79
2022-10-11T18:05:30.512Z,90.16
2022-10-11T18:07:32.322Z,89.7
2022-10-11T18:09:33.827Z,90.08
2022-10-11T18:11:35.595Z,89.37
2022-10-11T18:13:37.156Z,90.01
2022-10-11T18:15:38.821Z,90.05
2022-10-11T18:17:40.467Z,90.21
2022-10-11T18:19:41.708Z,89.88
2022-10-11T18:21:43.201Z,89.85
2022-10-11T18:23:44.405Z,90.09
2022-10-11T18:25:45.917Z,90.11
2022-10-11T18:27:47.488Z,89.71
2022-10-11T18:29:48.620Z,89.67
2022-10-11T18:31:49.782Z,89.52
2022-10-11T18:33:51.569Z,89.4
2022-10-11T18:35:53.266Z,89.62
2022-10-11T18:37:56.406Z,88.67
2022-10-11T18:39:55.962Z,88.33
2022-10-11T18:41:57.667Z,88.08
2022-10-11T18:43:59.345Z,88.11
2022-10-11T18:48:02.412Z,86.83
2022-10-11T18:50:04.046Z,86.86
2022-10-11T18:54:06.616Z,86.69
2022-10-11T18:58:09.056Z,87.03
2022-10-11T19:00:22.535Z,86.9
2022-10-11T19:02:11.499Z,87.08
2022-10-11T19:04:12.820Z,86.5
2022-10-11T19:06:13.937Z,86.87
2022-10-11T19:08:15.694Z,86.39
2022-10-11T19:10:17.207Z,86.43
2022-10-11T19:12:18.450Z,86.75
2022-10-11T19:14:19.872Z,87.12
2022-10-11T19:16:20.966Z,86.9
2022-10-11T19:18:21.942Z,87.07
2022-10-11T19:20:23.631Z,87.34
2022-10-11T19:22:24.936Z,87.44
2022-10-11T19:24:26.051Z,87.18
2022-10-11T19:26:27.610Z,87.29
2022-10-11T19:28:29.493Z,87.01
2022-10-11T19:30:30.697Z,86.76
2022-10-11T19:32:32.307Z,87.15
2022-10-11T19:34:33.461Z,86.28
2022-10-11T19:36:36.738Z,86.83
2022-10-11T19:40:37.931Z,87.12
2022-10-11T19:42:39.003Z,85.78
2022-10-11T19:44:40.558Z,85.86
2022-10-11T19:46:51.349Z,86.23
2022-10-11T19:48:43.758Z,86.9
2022-10-11T19:50:45.543Z,87.62
2022-10-11T19:52:47.140Z,87.99
2022-10-11T19:54:49.014Z,87.65
2022-10-11T19:56:50.099Z,87.66
2022-10-11T19:58:51.494Z,87.36
2022-10-11T20:00:52.457Z,87.49
2022-10-11T20:02:54.064Z,87.29
2022-10-11T20:04:55.094Z,87.46
2022-10-11T20:06:56.059Z,87.45
2022-10-11T20:10:58.612Z,87.71
2022-10-11T20:12:59.442Z,87.64
2022-10-11T20:15:00.416Z,87.92
2022-10-11T20:17:01.719Z,88.15
2022-10-11T20:19:03.060Z,89.62
2022-10-11T20:21:04.182Z,90.44
2022-10-11T20:23:06.093Z,91.4
2022-10-11T20:25:07.573Z,91.52
2022-10-11T20:29:11.044Z,91.51
2022-10-11T20:31:12.285Z,91.45
2022-10-11T20:33:13.795Z,91.34
2022-10-11T20:33:57.608Z,91.39
2022-10-11T20:35:58.938Z,91.59
2022-10-11T20:38:00.111Z,91.31
2022-10-11T20:40:01.379Z,90.43
2022-10-11T20:42:02.626Z,90.39
2022-10-11T20:44:04.241Z,90.9
2022-10-11T20:46:05.494Z,91.82
2022-10-11T20:48:07.318Z,92.24
2022-10-11T20:50:09.002Z,92.38
2022-10-11T20:52:10.840Z,92.35
2022-10-11T20:54:11.840Z,92.53
2022-10-11T20:56:13.613Z,92.33
2022-10-11T20:58:15.227Z,92.21
2022-10-11T21:00:16.426Z,92.36
2022-10-11T21:02:19.042Z,92.54
2022-10-11T21:04:18.683Z,92.46
2022-10-11T21:06:20.336Z,92.06
2022-10-11T21:08:21.916Z,92.84
2022-10-11T21:10:22.882Z,93.06
2022-10-11T21:12:24.380Z,93.15
2022-10-11T21:16:26.918Z,93.17
2022-10-11T21:18:28.394Z,93.19
2022-10-11T21:20:29.500Z,93.16
2022-10-11T21:22:31.264Z,92.93
2022-10-11T21:24:32.312Z,92.75
2022-10-11T21:26:33.691Z,92.74
2022-10-11T21:28:35.672Z,92.67
2022-10-11T21:30:36.627Z,92.62
2022-10-11T21:32:38.166Z,92.72
2022-10-11T21:34:39.643Z,92.77
2022-10-11T21:36:40.791Z,92.89
2022-10-11T21:38:41.821Z,93.09
2022-10-11T21:40:43.395Z,93.47
2022-10-11T21:42:44.744Z,93.81
2022-10-11T21:44:46.235Z,94.27
2022-10-11T21:47:05.847Z,94.45
2022-10-11T21:48:49.439Z,94.42
2022-10-11T21:50:50.963Z,94.22
2022-10-11T21:52:52.695Z,94.29
2022-10-11T21:54:53.756Z,94.39
2022-10-11T21:56:54.971Z,94.47
2022-10-11T21:58:56.786Z,94.37
2022-10-11T22:00:58.052Z,94.42
2022-10-11T22:02:59.601Z,94.51
2022-10-11T22:05:01.180Z,94.8
2022-10-11T22:07:02.134Z,95.16
2022-10-11T22:09:03.941Z,95.46
2022-10-11T22:11:05.439Z,95.77
2022-10-11T22:13:06.394Z,95.97
2022-10-11T22:15:07.602Z,96.16
2022-10-11T22:17:09.225Z,96.26
2022-10-11T22:19:10.586Z,96.45
2022-10-11T22:21:11.722Z,96.49
2022-10-11T22:23:13.209Z,96.57
2022-10-11T22:25:14.884Z,96.66
2022-10-11T22:27:16.189Z,96.69
2022-10-11T22:29:17.189Z,96.73
2022-10-11T22:31:18.321Z,96.8
2022-10-11T22:33:20.220Z,96.65
2022-10-11T22:35:21.515Z,96.57
2022-10-11T22:37:23.276Z,96.53
2022-10-11T22:39:24.462Z,96.44
2022-10-11T22:41:26.006Z,96.41
2022-10-11T22:43:27.174Z,96.38
2022-10-11T22:47:29.731Z,96.17
2022-10-11T22:49:31.588Z,96.07
2022-10-11T22:51:33.191Z,96
2022-10-11T22:53:34.648Z,95.98
2022-10-11T22:57:37.214Z,96.01
2022-10-11T22:59:38.346Z,96.07
2022-10-11T23:01:39.313Z,96.14
2022-10-11T23:03:40.701Z,96.14
2022-10-11T23:05:41.879Z,96.25
2022-10-11T23:07:43.628Z,96.25
2022-10-11T23:09:44.769Z,96.27
2022-10-11T23:11:45.738Z,96.27
2022-10-11T23:13:46.805Z,96.29
2022-10-11T23:15:48.184Z,96.32
2022-10-11T23:17:49.898Z,96.37
2022-10-11T23:19:51.191Z,96.34
2022-10-11T23:21:52.378Z,96.34
2022-10-11T23:23:53.821Z,96.3
2022-10-11T23:25:55.690Z,96.27
2022-10-11T23:27:57.158Z,96.49
2022-10-11T23:29:58.796Z,96.62
2022-10-11T23:32:00.204Z,96.65
2022-10-11T23:34:02.161Z,96.67
2022-10-11T23:36:03.452Z,96.77
2022-10-11T23:40:07.143Z,96.96
2022-10-11T23:42:09.053Z,96.96
2022-10-11T23:44:10.869Z,97.05
2022-10-11T23:46:12.135Z,97.1
2022-10-11T23:48:13.441Z,97.04
2022-10-11T23:50:15.157Z,97.17
2022-10-11T23:52:17.073Z,97.16
2022-10-11T23:54:18.958Z,97.06
2022-10-11T23:56:20.860Z,97.05
2022-10-11T23:58:21.939Z,97.06
